Sea Commander — VGGC — position and weather

sailwx.info

Track history (hours):
 
Tides and Currents Weather Stations Pressure Air Temp Water Temp Dewpoint Dewpoint Depression Visibility Wind Speed Wind Dir Waves Ship Positions

Sea Commander

Last reported at 2014-Oct-31 06:33 UTC. Time now 2014-Oct-31 07:04 UTC.
Position N 51°08' W 127°49'.

Length 44 m; draft 7 m.

Type: Tug. MMSI: 316001043.

Date/timePositionNaut miles runAvg speedWind from/ knotsBaromVisibWave heightAir tempDewpointWater temp
2014-Oct-31 06:33N 51°08' W 127°49'5 4.9
2014-Oct-31 05:33N 51°13' W 127°52'12 5.3
2014-Oct-31 03:19N 51°25' W 127°51'5 6.1
2014-Oct-31 02:32N 51°29' W 127°51'188 5.2
2014-Oct-29 14:17N 54°11' W 130°28'4 5.7
2014-Oct-29 13:33N 54°15' W 130°32'  
2014-Oct-26 06:33N 54°27' W 130°33'1010.1
2014-Oct-26 05:33N 54°17' W 130°33'7 7.0
2014-Oct-26 04:32N 54°15' W 130°21'7 6.9
2014-Oct-26 03:33N 54°21' W 130°16'0 0.0
2014-Oct-26 02:33N 54°21' W 130°16'0 0.0
2014-Oct-26 01:33N 54°21' W 130°16'0 0.0
2014-Oct-26 00:33N 54°21' W 130°16'0 0.0
2014-Oct-25 23:33N 54°21' W 130°16'0 0.0
2014-Oct-25 22:33N 54°21' W 130°16'0 0.0
2014-Oct-25 21:33N 54°21' W 130°16'0 0.0
2014-Oct-25 20:33N 54°21' W 130°16'0 0.0
2014-Oct-25 19:33N 54°21' W 130°16'0 0.0
2014-Oct-25 18:33N 54°21' W 130°16'0 0.0
2014-Oct-25 17:33N 54°21' W 130°16'3 0.2
2014-Oct-25 02:23N 54°19' W 130°19'0 0.0
2014-Oct-25 01:33N 54°19' W 130°19'0 0.0
2014-Oct-25 00:33N 54°19' W 130°19'0 0.0
2014-Oct-24 23:33N 54°19' W 130°19'3 2.6
2014-Oct-24 22:33N 54°21' W 130°16'0 0.1
2014-Oct-24 21:33N 54°21' W 130°16'0 0.0
2014-Oct-24 20:33N 54°21' W 130°16'0 0.0
2014-Oct-24 19:33N 54°21' W 130°16'0 0.0
2014-Oct-24 18:33N 54°21' W 130°16'0 0.0
2014-Oct-24 17:33N 54°21' W 130°16'0 0.0
2014-Oct-24 04:33N 54°21' W 130°16'0 0.0
2014-Oct-24 03:33N 54°21' W 130°16'0 0.0
2014-Oct-24 02:33N 54°21' W 130°16'0 0.0
2014-Oct-24 01:33N 54°21' W 130°16'0 0.0
2014-Oct-24 00:33N 54°21' W 130°16'0 0.0
2014-Oct-23 23:33N 54°21' W 130°16'0 0.0
2014-Oct-23 22:33N 54°21' W 130°16'0 0.0
2014-Oct-23 21:33N 54°21' W 130°16'0 0.0
2014-Oct-23 20:33N 54°21' W 130°16'0 0.0
2014-Oct-23 19:33N 54°21' W 130°16'  
Track history (hours):
 
Tides and Currents Weather Stations Pressure Air Temp Water Temp Dewpoint Dewpoint Depression Visibility Wind Speed Wind Dir Waves Ship Positions

Sea Commander

Last reported at 2014-Oct-31 06:33 UTC. Time now 2014-Oct-31 07:04 UTC.
Position N 51°08' W 127°49'.

Length 44 m; draft 7 m.

Type: Tug. MMSI: 316001043.

Date/timePositionNaut miles runAvg speedWind from/ knotsBaromVisibWave heightAir tempDewpointWater temp
2014-Oct-31 06:33N 51°08' W 127°49'5 4.9
2014-Oct-31 05:33N 51°13' W 127°52'12 5.3
2014-Oct-31 03:19N 51°25' W 127°51'5 6.1
2014-Oct-31 02:32N 51°29' W 127°51'188 5.2
2014-Oct-29 14:17N 54°11' W 130°28'4 5.7
2014-Oct-29 13:33N 54°15' W 130°32'  
2014-Oct-26 06:33N 54°27' W 130°33'1010.1
2014-Oct-26 05:33N 54°17' W 130°33'7 7.0
2014-Oct-26 04:32N 54°15' W 130°21'7 6.9
2014-Oct-26 03:33N 54°21' W 130°16'0 0.0
2014-Oct-26 02:33N 54°21' W 130°16'0 0.0
2014-Oct-26 01:33N 54°21' W 130°16'0 0.0
2014-Oct-26 00:33N 54°21' W 130°16'0 0.0
2014-Oct-25 23:33N 54°21' W 130°16'0 0.0
2014-Oct-25 22:33N 54°21' W 130°16'0 0.0
2014-Oct-25 21:33N 54°21' W 130°16'0 0.0
2014-Oct-25 20:33N 54°21' W 130°16'0 0.0
2014-Oct-25 19:33N 54°21' W 130°16'0 0.0
2014-Oct-25 18:33N 54°21' W 130°16'0 0.0
2014-Oct-25 17:33N 54°21' W 130°16'3 0.2
2014-Oct-25 02:23N 54°19' W 130°19'0 0.0
2014-Oct-25 01:33N 54°19' W 130°19'0 0.0
2014-Oct-25 00:33N 54°19' W 130°19'0 0.0
2014-Oct-24 23:33N 54°19' W 130°19'3 2.6
2014-Oct-24 22:33N 54°21' W 130°16'0 0.1
2014-Oct-24 21:33N 54°21' W 130°16'0 0.0
2014-Oct-24 20:33N 54°21' W 130°16'0 0.0
2014-Oct-24 19:33N 54°21' W 130°16'0 0.0
2014-Oct-24 18:33N 54°21' W 130°16'0 0.0
2014-Oct-24 17:33N 54°21' W 130°16'0 0.0
2014-Oct-24 04:33N 54°21' W 130°16'0 0.0
2014-Oct-24 03:33N 54°21' W 130°16'0 0.0
2014-Oct-24 02:33N 54°21' W 130°16'0 0.0
2014-Oct-24 01:33N 54°21' W 130°16'0 0.0
2014-Oct-24 00:33N 54°21' W 130°16'0 0.0
2014-Oct-23 23:33N 54°21' W 130°16'0 0.0
2014-Oct-23 22:33N 54°21' W 130°16'0 0.0
2014-Oct-23 21:33N 54°21' W 130°16'0 0.0
2014-Oct-23 20:33N 54°21' W 130°16'0 0.0
2014-Oct-23 19:33N 54°21' W 130°16'  

Dump ship's entire track history